Time;durP1;ratioP1;P1;durP2;ratioP2;P2;SDS_P1;SDS_P2;PMS_P1;PMS_P2;Temp;Humidity;BMP_temperature;BMP_pressure;BME280_temperature;BME280_humidity;BME280_pressure;Samples;Min_cycle;Max_cycle;Signal;HPM_P1;HPM_P2
2022/11/23 00:01:59;;;;;;;19.73;10.90;;;;;;;;;;5136560;27;20448;-71
2022/11/23 00:04:26;;;;;;;14.20;10.20;;;;;;;;;;5135985;27;20856;-71
2022/11/23 00:06:53;;;;;;;14.80;10.37;;;;;;;;;;5134695;27;20472;-71
2022/11/23 00:09:20;;;;;;;17.57;10.73;;;;;;;;;;5136515;27;20452;-71
2022/11/23 00:11:47;;;;;;;14.20;9.67;;;;;;;;;;5136327;27;20801;-71
2022/11/23 00:14:15;;;;;;;13.17;10.37;;;;;;;;;;5135746;27;20455;-70
2022/11/23 00:16:43;;;;;;;13.93;10.17;;;;;;;;;;5136169;27;20465;-71
2022/11/23 00:19:10;;;;;;;12.60;10.97;;;;;;;;;;5136503;27;20449;-71
2022/11/23 00:21:37;;;;;;;14.43;9.90;;;;;;;;;;5136273;27;20440;-71
2022/11/23 00:24:04;;;;;;;14.03;11.57;;;;;;;;;;5133991;27;20488;-71
2022/11/23 00:26:31;;;;;;;11.70;9.93;;;;;;;;;;5136070;27;20464;-71
2022/11/23 00:28:59;;;;;;;13.23;9.97;;;;;;;;;;5135953;27;20445;-71
2022/11/23 00:31:27;;;;;;;12.97;10.73;;;;;;;;;;5136284;27;20453;-71
2022/11/23 00:33:55;;;;;;;18.43;11.27;;;;;;;;;;5135311;27;20966;-71
2022/11/23 00:36:23;;;;;;;13.73;9.63;;;;;;;;;;5135945;27;20572;-71
2022/11/23 00:38:53;;;;;;;14.73;10.47;;;;;;;;;;5135984;27;20770;-71
2022/11/23 00:41:20;;;;;;;12.40;10.50;;;;;;;;;;5135810;27;20830;-71
2022/11/23 00:43:48;;;;;;;12.13;10.17;;;;;;;;;;5135135;27;20565;-71
2022/11/23 00:46:16;;;;;;;12.77;10.43;;;;;;;;;;5135825;27;20989;-72
2022/11/23 00:48:45;;;;;;;15.33;10.20;;;;;;;;;;5135980;27;20953;-71
2022/11/23 00:51:13;;;;;;;13.90;10.27;;;;;;;;;;5135666;27;20448;-71
2022/11/23 00:53:40;;;;;;;13.80;10.70;;;;;;;;;;5135030;27;20807;-71
2022/11/23 00:56:08;;;;;;;13.80;11.47;;;;;;;;;;5135692;27;20451;-71
2022/11/23 00:58:37;;;;;;;14.27;9.83;;;;;;;;;;5135867;27;20449;-71
2022/11/23 01:01:05;;;;;;;12.47;9.63;;;;;;;;;;5135640;27;20460;-71
2022/11/23 01:03:33;;;;;;;11.93;10.27;;;;;;;;;;5134917;27;20985;-71
2022/11/23 01:06:08;;;;;;;16.60;12.27;;;;;;;;;;5133861;27;20457;-71
2022/11/23 01:08:36;;;;;;;15.20;10.50;;;;;;;;;;5135281;27;20543;-71
2022/11/23 01:11:03;;;;;;;15.13;11.57;;;;;;;;;;5135350;27;20449;-71
2022/11/23 01:13:31;;;;;;;15.27;10.90;;;;;;;;;;5134379;27;20468;-71
2022/11/23 01:15:58;;;;;;;15.27;10.67;;;;;;;;;;5134890;27;20453;-71
2022/11/23 01:18:25;;;;;;;20.50;14.77;;;;;;;;;;5135150;27;20944;-71
2022/11/23 01:20:53;;;;;;;25.17;13.70;;;;;;;;;;5135069;27;20453;-71
2022/11/23 01:23:21;;;;;;;18.77;12.37;;;;;;;;;;5134680;27;20449;-71
2022/11/23 01:25:48;;;;;;;18.93;11.80;;;;;;;;;;5132737;27;20819;-71
2022/11/23 01:28:15;;;;;;;16.93;12.60;;;;;;;;;;5134902;27;20459;-71
2022/11/23 01:30:42;;;;;;;14.87;12.37;;;;;;;;;;5134857;27;20457;-71
2022/11/23 01:33:10;;;;;;;17.97;11.10;;;;;;;;;;5134945;27;20451;-71
2022/11/23 01:35:37;;;;;;;18.13;13.03;;;;;;;;;;5133197;27;20445;-71
2022/11/23 01:38:04;;;;;;;15.53;11.40;;;;;;;;;;5134911;27;20475;-71
2022/11/23 01:40:39;;;;;;;18.10;12.50;;;;;;;;;;5134834;27;20463;-71
2022/11/23 01:43:08;;;;;;;14.40;12.10;;;;;;;;;;5134707;27;20471;-71
2022/11/23 01:45:37;;;;;;;15.73;12.23;;;;;;;;;;5133798;27;20485;-71
2022/11/23 01:48:06;;;;;;;18.10;11.83;;;;;;;;;;5134782;27;20472;-71
2022/11/23 01:50:34;;;;;;;16.23;11.60;;;;;;;;;;5134558;27;20443;-71
2022/11/23 01:53:01;;;;;;;13.27;10.67;;;;;;;;;;5134501;27;20455;-71
2022/11/23 01:55:28;;;;;;;16.30;11.40;;;;;;;;;;5133749;27;20827;-71
2022/11/23 01:57:56;;;;;;;16.63;12.07;;;;;;;;;;5134350;27;20483;-71
2022/11/23 02:00:24;;;;;;;18.63;12.30;;;;;;;;;;5134557;27;20452;-71
2022/11/23 02:02:52;;;;;;;18.50;13.33;;;;;;;;;;5134225;27;20453;-71
2022/11/23 02:05:20;;;;;;;17.70;12.47;;;;;;;;;;5132048;27;20492;-71
2022/11/23 02:07:48;;;;;;;17.13;11.63;;;;;;;;;;5134046;27;20842;-71
2022/11/23 02:10:15;;;;;;;16.23;11.67;;;;;;;;;;5134569;27;20432;-71
2022/11/23 02:12:43;;;;;;;22.03;11.03;;;;;;;;;;5134069;27;20958;-71
2022/11/23 02:15:11;;;;;;;16.87;13.03;;;;;;;;;;5133511;27;20445;-71
2022/11/23 02:17:38;;;;;;;13.77;11.03;;;;;;;;;;5133822;27;20471;-71
2022/11/23 02:20:08;;;;;;;12.30;9.87;;;;;;;;;;5133869;27;20448;-71
2022/11/23 02:22:40;;;;;;;14.73;10.97;;;;;;;;;;5133869;27;20479;-71
2022/11/23 02:25:09;;;;;;;15.30;10.67;;;;;;;;;;5131769;27;20973;-71
2022/11/23 02:27:38;;;;;;;16.00;10.60;;;;;;;;;;5133690;27;20838;-71
2022/11/23 02:30:05;;;;;;;14.80;10.23;;;;;;;;;;5133735;27;20448;-71
2022/11/23 02:32:34;;;;;;;16.53;11.27;;;;;;;;;;5133821;27;20457;-71
2022/11/23 02:35:01;;;;;;;15.53;10.30;;;;;;;;;;5133325;27;20961;-71
2022/11/23 02:37:28;;;;;;;16.73;10.17;;;;;;;;;;5133678;27;20479;-71
2022/11/23 02:39:57;;;;;;;14.60;10.60;;;;;;;;;;5133605;27;20449;-71
2022/11/23 02:42:25;;;;;;;17.17;10.13;;;;;;;;;;5133684;27;20452;-71
2022/11/23 02:45:00;;;;;;;15.97;10.27;;;;;;;;;;5132852;27;20484;-71
2022/11/23 02:47:27;;;;;;;13.27;9.70;;;;;;;;;;5132602;27;20468;-71
2022/11/23 02:49:54;;;;;;;12.37;9.10;;;;;;;;;;5133892;27;20466;-71
2022/11/23 02:52:21;;;;;;;13.10;9.77;;;;;;;;;;5133517;27;20449;-71
2022/11/23 02:54:48;;;;;;;12.57;9.07;;;;;;;;;;5132729;27;20445;-71
2022/11/23 02:57:16;;;;;;;18.10;9.57;;;;;;;;;;5133429;28;20851;-71
2022/11/23 02:59:43;;;;;;;15.17;9.40;;;;;;;;;;5133339;28;20459;-71
2022/11/23 03:02:11;;;;;;;14.40;9.10;;;;;;;;;;5133200;28;20810;-71
2022/11/23 03:04:38;;;;;;;11.10;8.80;;;;;;;;;;5132772;28;20847;-71
2022/11/23 03:07:05;;;;;;;12.60;8.13;;;;;;;;;;5132176;28;20555;-71
2022/11/23 03:09:32;;;;;;;15.30;10.00;;;;;;;;;;5133778;28;20533;-71
2022/11/23 03:12:00;;;;;;;14.63;9.57;;;;;;;;;;5133284;28;20823;-71
2022/11/23 03:14:27;;;;;;;12.80;8.93;;;;;;;;;;5133005;28;20436;-71
2022/11/23 03:16:54;;;;;;;12.33;8.80;;;;;;;;;;5133176;28;20839;-71
2022/11/23 03:19:22;;;;;;;15.50;8.73;;;;;;;;;;5133638;28;20451;-71
2022/11/23 03:21:49;;;;;;;11.73;7.90;;;;;;;;;;5133187;28;20454;-70
2022/11/23 03:24:17;;;;;;;12.57;8.20;;;;;;;;;;5131343;28;21013;-71
2022/11/23 03:26:44;;;;;;;10.57;7.60;;;;;;;;;;5133034;28;20464;-71
2022/11/23 03:29:11;;;;;;;11.30;7.23;;;;;;;;;;5133271;28;20457;-71
2022/11/23 03:31:38;;;;;;;10.83;7.50;;;;;;;;;;5133103;28;20449;-71
2022/11/23 03:34:05;;;;;;;11.93;7.97;;;;;;;;;;5132483;28;20448;-71
2022/11/23 03:36:34;;;;;;;11.87;8.17;;;;;;;;;;5133083;28;20974;-71
2022/11/23 03:39:01;;;;;;;14.50;8.40;;;;;;;;;;5133260;28;20971;-71
2022/11/23 03:41:28;;;;;;;15.00;8.37;;;;;;;;;;5133119;28;20456;-71
2022/11/23 03:43:55;;;;;;;10.40;7.40;;;;;;;;;;5132523;28;20448;-71
2022/11/23 03:46:22;;;;;;;11.90;8.73;;;;;;;;;;5132926;28;20837;-71
2022/11/23 03:48:49;;;;;;;10.93;8.53;;;;;;;;;;5132792;28;20453;-70
2022/11/23 03:51:17;;;;;;;12.17;7.67;;;;;;;;;;5133305;28;20445;-71
2022/11/23 03:53:45;;;;;;;17.73;7.90;;;;;;;;;;5132301;28;20452;-70
2022/11/23 03:56:12;;;;;;;11.43;7.90;;;;;;;;;;5133118;28;20471;-71
2022/11/23 03:58:39;;;;;;;9.70;7.17;;;;;;;;;;5134413;27;20533;-71
2022/11/23 04:01:07;;;;;;;9.40;7.03;;;;;;;;;;5136747;27;20961;-71
2022/11/23 04:03:34;;;;;;;14.37;8.50;;;;;;;;;;5136060;27;20459;-70
2022/11/23 04:06:01;;;;;;;11.93;7.87;;;;;;;;;;5135398;27;20491;-71
2022/11/23 04:08:28;;;;;;;16.10;9.90;;;;;;;;;;5136420;27;20826;-71
2022/11/23 04:10:58;;;;;;;17.30;9.53;;;;;;;;;;5136289;27;20456;-71
2022/11/23 04:13:25;;;;;;;11.60;9.30;;;;;;;;;;5136239;27;20460;-71
2022/11/23 04:15:52;;;;;;;12.30;8.60;;;;;;;;;;5136144;27;20447;-71
2022/11/23 04:18:20;;;;;;;11.80;8.50;;;;;;;;;;5136424;27;20826;-71
2022/11/23 04:20:47;;;;;;;9.30;7.87;;;;;;;;;;5136249;27;20455;-71
2022/11/23 04:23:14;;;;;;;11.67;7.80;;;;;;;;;;5136378;27;20444;-71
2022/11/23 04:25:41;;;;;;;13.77;7.63;;;;;;;;;;5133254;27;20483;-71
2022/11/23 04:28:10;;;;;;;9.60;8.00;;;;;;;;;;5136307;27;21138;-71
2022/11/23 04:30:37;;;;;;;10.90;8.27;;;;;;;;;;5136015;27;20441;-71
2022/11/23 04:33:04;;;;;;;10.43;8.10;;;;;;;;;;5136539;27;20452;-71
2022/11/23 04:35:33;;;;;;;9.47;7.30;;;;;;;;;;5135448;27;20447;-71
2022/11/23 04:38:00;;;;;;;12.03;7.47;;;;;;;;;;5136209;27;20468;-71
2022/11/23 04:40:27;;;;;;;9.30;6.80;;;;;;;;;;5136438;27;20448;-71
2022/11/23 04:42:55;;;;;;;10.97;7.20;;;;;;;;;;5135989;27;20548;-71
2022/11/23 04:45:23;;;;;;;11.67;8.17;;;;;;;;;;5135344;27;21016;-71
2022/11/23 04:47:50;;;;;;;9.77;7.57;;;;;;;;;;5135998;27;21001;-71
2022/11/23 04:50:17;;;;;;;14.60;8.43;;;;;;;;;;5135652;27;20440;-71
2022/11/23 04:52:44;;;;;;;14.13;9.40;;;;;;;;;;5135584;27;21037;-71
2022/11/23 04:55:12;;;;;;;16.50;11.87;;;;;;;;;;5135074;27;20444;-71
2022/11/23 04:57:39;;;;;;;13.70;10.50;;;;;;;;;;5135572;27;20992;-71
2022/11/23 05:00:06;;;;;;;15.13;9.90;;;;;;;;;;5135560;27;20456;-71
2022/11/23 05:02:35;;;;;;;11.47;8.53;;;;;;;;;;5135552;27;20531;-71
2022/11/23 05:05:02;;;;;;;9.50;8.13;;;;;;;;;;5134623;27;20485;-71
2022/11/23 05:07:29;;;;;;;12.47;8.30;;;;;;;;;;5134680;27;20471;-71
2022/11/23 05:09:56;;;;;;;12.80;9.10;;;;;;;;;;5134425;27;20455;-71
2022/11/23 05:12:23;;;;;;;14.77;9.60;;;;;;;;;;5135236;27;20460;-71
2022/11/23 05:14:50;;;;;;;11.70;8.37;;;;;;;;;;5134730;27;20459;-71
2022/11/23 05:17:17;;;;;;;11.50;8.27;;;;;;;;;;5135158;27;20546;-71
2022/11/23 05:19:46;;;;;;;11.30;8.10;;;;;;;;;;5135314;27;20455;-71
2022/11/23 05:22:13;;;;;;;17.30;11.30;;;;;;;;;;5135316;27;20933;-71
2022/11/23 05:24:40;;;;;;;26.53;13.83;;;;;;;;;;5131529;27;20459;-71
2022/11/23 05:27:07;;;;;;;14.77;11.20;;;;;;;;;;5134923;27;20472;-71
2022/11/23 05:29:34;;;;;;;13.00;8.63;;;;;;;;;;5135099;27;20455;-71
2022/11/23 05:32:02;;;;;;;13.13;9.87;;;;;;;;;;5135200;27;20460;-71
2022/11/23 05:34:29;;;;;;;11.30;9.10;;;;;;;;;;5134305;27;20824;-71
2022/11/23 05:36:57;;;;;;;12.77;8.60;;;;;;;;;;5134688;27;20464;-71
2022/11/23 05:39:25;;;;;;;11.00;8.37;;;;;;;;;;5134860;27;20459;-71
2022/11/23 05:41:52;;;;;;;13.57;10.30;;;;;;;;;;5134903;27;20502;-71
2022/11/23 05:44:19;;;;;;;19.23;13.10;;;;;;;;;;5134165;27;20449;-71
2022/11/23 05:46:46;;;;;;;25.20;13.87;;;;;;;;;;5134361;27;20488;-71
2022/11/23 05:49:13;;;;;;;12.60;10.17;;;;;;;;;;5134663;27;20448;-71
2022/11/23 05:51:41;;;;;;;16.23;10.73;;;;;;;;;;5134490;27;20451;-70
2022/11/23 05:54:09;;;;;;;20.03;12.67;;;;;;;;;;5133848;27;20452;-71
2022/11/23 05:56:36;;;;;;;12.50;9.83;;;;;;;;;;5134370;27;20461;-71
2022/11/23 05:59:04;;;;;;;15.50;12.23;;;;;;;;;;5134671;27;20451;-70
2022/11/23 06:01:31;;;;;;;22.30;14.93;;;;;;;;;;5134245;27;20448;-71
2022/11/23 06:03:59;;;;;;;33.13;21.47;;;;;;;;;;5133665;27;20456;-70
2022/11/23 06:06:26;;;;;;;21.33;15.00;;;;;;;;;;5132863;27;20499;-71
2022/11/23 06:08:53;;;;;;;22.53;12.83;;;;;;;;;;5134237;27;20444;-71
2022/11/23 06:11:22;;;;;;;17.30;11.23;;;;;;;;;;5134054;27;20448;-70
2022/11/23 06:13:49;;;;;;;15.47;12.00;;;;;;;;;;5133234;27;20471;-70
2022/11/23 06:16:17;;;;;;;17.73;11.60;;;;;;;;;;5134058;27;20476;-71
2022/11/23 06:18:44;;;;;;;19.03;11.00;;;;;;;;;;5133873;27;20444;-71
2022/11/23 06:21:11;;;;;;;20.50;12.00;;;;;;;;;;5133919;27;20448;-71
2022/11/23 06:23:38;;;;;;;20.63;12.40;;;;;;;;;;5131505;27;20475;-70
2022/11/23 06:26:05;;;;;;;18.73;11.73;;;;;;;;;;5133752;27;20484;-71
2022/11/23 06:28:35;;;;;;;26.93;13.23;;;;;;;;;;5133896;27;20964;-71
2022/11/23 06:31:04;;;;;;;17.30;12.80;;;;;;;;;;5133926;27;20444;-70
2022/11/23 06:33:31;;;;;;;24.50;13.30;;;;;;;;;;5133076;27;20453;-71
2022/11/23 06:35:59;;;;;;;17.30;11.77;;;;;;;;;;5133565;27;20448;-71
2022/11/23 06:38:26;;;;;;;16.03;11.60;;;;;;;;;;5133735;27;20453;-71
2022/11/23 06:40:54;;;;;;;17.43;12.63;;;;;;;;;;5133740;27;20452;-71
2022/11/23 06:43:21;;;;;;;49.30;30.23;;;;;;;;;;5143687;27;20499;-71
2022/11/23 06:45:49;;;;;;;21.97;14.37;;;;;;;;;;5153564;27;20495;-71
2022/11/23 06:48:16;;;;;;;14.97;10.67;;;;;;;;;;5154431;27;20451;-71
2022/11/23 06:50:43;;;;;;;16.00;11.50;;;;;;;;;;5153747;27;20819;-70
2022/11/23 06:53:11;;;;;;;16.03;10.80;;;;;;;;;;5150513;27;20442;-71
2022/11/23 06:55:38;;;;;;;16.47;11.43;;;;;;;;;;5153229;27;21016;-70
2022/11/23 06:58:05;;;;;;;14.60;12.40;;;;;;;;;;5154050;27;20499;-71
2022/11/23 07:00:33;;;;;;;20.40;13.30;;;;;;;;;;5153378;27;20963;-71
2022/11/23 07:03:02;;;;;;;24.67;16.13;;;;;;;;;;5153806;27;20448;-71
2022/11/23 07:05:29;;;;;;;22.83;13.33;;;;;;;;;;5152549;27;20519;-71
2022/11/23 07:07:56;;;;;;;16.23;11.83;;;;;;;;;;5153542;27;20464;-71
2022/11/23 07:10:24;;;;;;;19.13;12.07;;;;;;;;;;5153897;27;20458;-71
2022/11/23 07:12:51;;;;;;;15.53;11.10;;;;;;;;;;5153242;27;20468;-71
2022/11/23 07:15:19;;;;;;;17.80;12.30;;;;;;;;;;5153343;27;20908;-71
2022/11/23 07:17:46;;;;;;;17.60;10.33;;;;;;;;;;5153453;27;20475;-71
2022/11/23 07:20:14;;;;;;;17.53;10.43;;;;;;;;;;5153668;27;20471;-70
2022/11/23 07:22:41;;;;;;;16.17;12.30;;;;;;;;;;5153304;27;20475;-71
2022/11/23 07:25:10;;;;;;;24.00;16.17;;;;;;;;;;5151449;27;20540;-71
2022/11/23 07:27:37;;;;;;;24.97;15.23;;;;;;;;;;5153454;27;20471;-71
2022/11/23 07:30:05;;;;;;;21.63;14.00;;;;;;;;;;5153689;27;20453;-71
2022/11/23 07:32:32;;;;;;;19.67;13.00;;;;;;;;;;5153431;27;20448;-71
2022/11/23 07:34:59;;;;;;;18.77;13.07;;;;;;;;;;5156907;27;20447;-71
2022/11/23 07:37:27;;;;;;;19.97;12.80;;;;;;;;;;5157665;27;20467;-71
2022/11/23 07:39:55;;;;;;;20.37;11.37;;;;;;;;;;5157466;27;20447;-71
2022/11/23 07:42:22;;;;;;;16.73;10.23;;;;;;;;;;5157329;27;20447;-71
2022/11/23 07:44:49;;;;;;;17.27;10.43;;;;;;;;;;5156834;27;20826;-71
2022/11/23 07:47:16;;;;;;;17.27;12.77;;;;;;;;;;5157327;27;20487;-71
2022/11/23 07:49:43;;;;;;;17.37;12.60;;;;;;;;;;5157888;27;20451;-71
2022/11/23 07:52:11;;;;;;;21.93;12.10;;;;;;;;;;5157289;27;20507;-71
2022/11/23 07:54:39;;;;;;;13.90;10.33;;;;;;;;;;5156533;27;20512;-71
2022/11/23 07:57:06;;;;;;;14.13;10.80;;;;;;;;;;5157198;27;20470;-71
2022/11/23 07:59:33;;;;;;;22.83;10.87;;;;;;;;;;5157284;27;20933;-71
2022/11/23 08:02:00;;;;;;;17.07;11.27;;;;;;;;;;5157029;27;20444;-71
2022/11/23 08:04:28;;;;;;;12.03;9.20;;;;;;;;;;5156635;27;20450;-71
2022/11/23 08:06:56;;;;;;;15.00;10.40;;;;;;;;;;5156247;27;20491;-71
2022/11/23 08:09:23;;;;;;;12.73;10.00;;;;;;;;;;5157326;27;20444;-71
2022/11/23 08:11:52;;;;;;;20.60;13.77;;;;;;;;;;5155496;27;20481;-71
2022/11/23 08:14:19;;;;;;;26.20;15.37;;;;;;;;;;5156717;27;20481;-71
2022/11/23 08:16:49;;;;;;;16.73;12.17;;;;;;;;;;5156848;27;20467;-71
2022/11/23 08:19:17;;;;;;;15.00;10.77;;;;;;;;;;5157451;27;20452;-71
2022/11/23 08:21:44;;;;;;;19.63;13.40;;;;;;;;;;5157135;27;20888;-71
2022/11/23 08:24:12;;;;;;;26.03;17.30;;;;;;;;;;5145019;27;20851;-71
2022/11/23 08:26:39;;;;;;;17.00;11.43;;;;;;;;;;5153055;27;20848;-71
2022/11/23 08:29:07;;;;;;;16.00;10.53;;;;;;;;;;5154902;27;20817;-71
2022/11/23 08:31:34;;;;;;;14.27;9.53;;;;;;;;;;5155483;27;20948;-71
2022/11/23 08:34:02;;;;;;;13.63;9.87;;;;;;;;;;5154158;27;20444;-71
2022/11/23 08:36:29;;;;;;;20.40;10.40;;;;;;;;;;5154419;27;20472;-71
2022/11/23 08:38:56;;;;;;;14.60;10.70;;;;;;;;;;5156616;27;20956;-71
2022/11/23 08:41:23;;;;;;;16.40;10.50;;;;;;;;;;5156450;27;20447;-71
2022/11/23 08:43:50;;;;;;;14.47;10.50;;;;;;;;;;5155659;27;20831;-70
2022/11/23 08:46:19;;;;;;;17.13;11.10;;;;;;;;;;5156465;27;20487;-71
2022/11/23 08:48:46;;;;;;;13.40;8.97;;;;;;;;;;5156285;27;20444;-71
2022/11/23 08:51:13;;;;;;;10.97;8.77;;;;;;;;;;5156306;27;20462;-71
2022/11/23 08:53:40;;;;;;;15.60;9.47;;;;;;;;;;5156288;27;20944;-71
2022/11/23 08:56:08;;;;;;;14.73;9.47;;;;;;;;;;5156348;27;20455;-71
2022/11/23 08:58:36;;;;;;;11.90;10.03;;;;;;;;;;5156086;27;20447;-71
2022/11/23 09:01:07;;;;;;;11.50;8.90;;;;;;;;;;5156353;27;20948;-71
2022/11/23 09:03:36;;;;;;;12.10;9.53;;;;;;;;;;5155802;27;20450;-71
2022/11/23 09:06:03;;;;;;;14.43;10.67;;;;;;;;;;5155983;27;20479;-71
2022/11/23 09:08:30;;;;;;;12.60;9.17;;;;;;;;;;5155980;27;20474;-71
2022/11/23 09:11:00;;;;;;;12.00;9.30;;;;;;;;;;5155846;27;20451;-71
2022/11/23 09:13:27;;;;;;;19.83;10.00;;;;;;;;;;5155775;27;20880;-70
2022/11/23 09:15:57;;;;;;;11.10;6.77;;;;;;;;;;5155741;27;20443;-71
2022/11/23 09:18:24;;;;;;;8.03;6.30;;;;;;;;;;5155733;27;20447;-71
2022/11/23 09:20:53;;;;;;;9.67;7.03;;;;;;;;;;5155738;27;20959;-71
2022/11/23 09:23:20;;;;;;;12.03;7.40;;;;;;;;;;5155845;27;20459;-71
2022/11/23 09:25:48;;;;;;;9.40;7.27;;;;;;;;;;5153821;27;20822;-71
2022/11/23 09:28:18;;;;;;;12.30;8.30;;;;;;;;;;5155839;27;20447;-71
2022/11/23 09:30:45;;;;;;;14.70;8.23;;;;;;;;;;5155246;27;20456;-71
2022/11/23 09:33:12;;;;;;;13.20;6.43;;;;;;;;;;5155754;27;20929;-71
2022/11/23 09:35:39;;;;;;;9.13;6.47;;;;;;;;;;5155176;27;20517;-71
2022/11/23 09:38:08;;;;;;;9.73;8.00;;;;;;;;;;5155415;27;20460;-72
2022/11/23 09:40:41;;;;;;;8.07;6.10;;;;;;;;;;5155472;27;20444;-71
2022/11/23 09:43:18;;;;;;;11.20;6.40;;;;;;;;;;5152471;27;20520;-71
2022/11/23 09:45:47;;;;;;;7.60;5.30;;;;;;;;;;5152953;27;20976;-71
2022/11/23 09:48:18;;;;;;;5.47;4.70;;;;;;;;;;5153792;27;20480;-71
2022/11/23 09:50:47;;;;;;;5.80;4.30;;;;;;;;;;5153403;27;20440;-71
2022/11/23 09:53:17;;;;;;;6.73;5.03;;;;;;;;;;5153755;27;20447;-71
2022/11/23 09:55:45;;;;;;;6.10;3.37;;;;;;;;;;5152486;27;20447;-71
2022/11/23 09:58:14;;;;;;;8.80;5.33;;;;;;;;;;5153370;27;20472;-71
2022/11/23 10:00:44;;;;;;;9.00;4.90;;;;;;;;;;5153814;27;20933;-70
2022/11/23 10:03:14;;;;;;;10.30;6.50;;;;;;;;;;5153707;27;20516;-71
2022/11/23 10:05:44;;;;;;;7.10;5.03;;;;;;;;;;5152808;27;20814;-72
2022/11/23 10:08:15;;;;;;;7.00;4.70;;;;;;;;;;5153571;27;20495;-71
2022/11/23 10:10:44;;;;;;;12.07;5.57;;;;;;;;;;5153785;27;20451;-71
2022/11/23 10:13:27;;;;;;;9.20;5.37;;;;;;;;;;5152369;27;20455;-71
2022/11/23 10:16:02;;;;;;;7.33;4.20;;;;;;;;;;5153399;27;20435;-72
2022/11/23 10:18:34;;;;;;;7.57;5.07;;;;;;;;;;5153528;27;20430;-72
2022/11/23 10:21:07;;;;;;;10.70;5.00;;;;;;;;;;5153255;27;20432;-72
2022/11/23 10:23:42;;;;;;;8.33;3.37;;;;;;;;;;5151512;27;20447;-71
2022/11/23 10:26:13;;;;;;;4.80;3.40;;;;;;;;;;5153370;27;20443;-72
2022/11/23 10:28:40;;;;;;;9.50;4.80;;;;;;;;;;5152840;27;20481;-72
2022/11/23 10:31:16;;;;;;;7.37;4.47;;;;;;;;;;5153292;27;20446;-72
2022/11/23 10:33:48;;;;;;;6.40;3.57;;;;;;;;;;5152730;27;20428;-72
2022/11/23 10:36:16;;;;;;;3.80;3.27;;;;;;;;;;5152915;27;20512;-72
2022/11/23 10:38:43;;;;;;;6.50;3.90;;;;;;;;;;5153390;27;20944;-72
2022/11/23 10:41:14;;;;;;;4.87;3.07;;;;;;;;;;5152937;27;20448;-72
2022/11/23 10:43:44;;;;;;;4.10;3.53;;;;;;;;;;5152210;27;20447;-72
2022/11/23 10:46:25;;;;;;;5.87;2.97;;;;;;;;;;5153215;27;20495;-72
2022/11/23 10:48:52;;;;;;;4.13;2.50;;;;;;;;;;5152848;27;20451;-72
2022/11/23 10:51:23;;;;;;;6.30;2.50;;;;;;;;;;5152637;27;20838;-72
2022/11/23 10:53:53;;;;;;;4.90;4.10;;;;;;;;;;5152894;27;20428;-72
2022/11/23 10:56:22;;;;;;;5.97;2.30;;;;;;;;;;5152819;27;20481;-72
2022/11/23 10:58:49;;;;;;;4.30;2.30;;;;;;;;;;5152669;27;20443;-72
2022/11/23 11:01:17;;;;;;;2.90;2.33;;;;;;;;;;5152582;27;20452;-72
2022/11/23 11:03:45;;;;;;;3.80;2.50;;;;;;;;;;5152530;27;20591;-71
2022/11/23 11:06:12;;;;;;;7.83;3.30;;;;;;;;;;5152250;27;20478;-71
2022/11/23 11:08:49;;;;;;;5.03;2.30;;;;;;;;;;5154573;27;20479;-71
2022/11/23 11:11:24;;;;;;;6.30;3.30;;;;;;;;;;5157235;27;20471;-72
2022/11/23 11:13:52;;;;;;;4.13;2.47;;;;;;;;;;5156089;27;20455;-72
2022/11/23 11:16:20;;;;;;;3.50;2.67;;;;;;;;;;5156986;27;20473;-71
2022/11/23 11:18:48;;;;;;;4.50;3.50;;;;;;;;;;5156670;27;20511;-72
2022/11/23 11:21:19;;;;;;;4.70;3.07;;;;;;;;;;5156192;27;20443;-70
2022/11/23 11:23:51;;;;;;;3.63;2.77;;;;;;;;;;5155210;27;20447;-71
2022/11/23 11:26:20;;;;;;;8.90;3.03;;;;;;;;;;5156768;27;20550;-71
2022/11/23 11:28:50;;;;;;;3.20;2.90;;;;;;;;;;5156706;27;20519;-72
2022/11/23 11:31:30;;;;;;;3.83;2.60;;;;;;;;;;5156543;27;20452;-72
2022/11/23 11:34:03;;;;;;;3.77;2.27;;;;;;;;;;5155867;27;20436;-71
2022/11/23 11:36:34;;;;;;;7.23;2.90;;;;;;;;;;5156799;27;20459;-71
2022/11/23 11:39:03;;;;;;;4.20;3.03;;;;;;;;;;5156847;27;20939;-72
2022/11/23 11:41:30;;;;;;;3.80;2.60;;;;;;;;;;5155887;27;20452;-72
2022/11/23 11:44:03;;;;;;;3.60;2.60;;;;;;;;;;5155924;27;20454;-72
2022/11/23 11:46:31;;;;;;;4.07;2.80;;;;;;;;;;5156376;27;20464;-71
2022/11/23 11:49:01;;;;;;;5.33;2.60;;;;;;;;;;5155830;27;20451;-72
2022/11/23 11:51:30;;;;;;;4.53;2.60;;;;;;;;;;5156449;27;20447;-72
2022/11/23 11:54:00;;;;;;;4.23;2.93;;;;;;;;;;5155975;27;20447;-71
2022/11/23 11:56:31;;;;;;;8.37;3.73;;;;;;;;;;5156044;27;20478;-72
2022/11/23 11:59:03;;;;;;;8.20;3.23;;;;;;;;;;5156182;27;20451;-72
2022/11/23 12:01:35;;;;;;;3.00;2.67;;;;;;;;;;5150597;27;20471;-71
2022/11/23 12:04:05;;;;;;;4.43;3.07;;;;;;;;;;5148535;27;20459;-72
2022/11/23 12:06:36;;;;;;;4.50;2.73;;;;;;;;;;5154891;27;20471;-72
2022/11/23 12:09:07;;;;;;;5.57;3.30;;;;;;;;;;5152149;27;20447;-72
2022/11/23 12:11:35;;;;;;;8.23;4.70;;;;;;;;;;5152861;27;20500;-72
2022/11/23 12:14:05;;;;;;;6.43;3.70;;;;;;;;;;5154597;27;20455;-72
2022/11/23 12:16:36;;;;;;;4.80;2.50;;;;;;;;;;5155022;27;20576;-72
2022/11/23 12:19:10;;;;;;;3.80;3.13;;;;;;;;;;5153913;27;20439;-72
2022/11/23 12:21:47;;;;;;;5.60;3.03;;;;;;;;;;5153305;27;20460;-72
2022/11/23 12:24:19;;;;;;;4.63;2.30;;;;;;;;;;5148172;27;20451;-72
2022/11/23 12:26:49;;;;;;;5.97;3.53;;;;;;;;;;5135612;27;20503;-72
2022/11/23 12:29:26;;;;;;;7.90;2.27;;;;;;;;;;5136539;27;20444;-72
2022/11/23 12:31:57;;;;;;;6.67;3.87;;;;;;;;;;5135949;27;20451;-72
2022/11/23 12:34:30;;;;;;;3.40;2.50;;;;;;;;;;5151590;27;20457;-72
2022/11/23 12:37:07;;;;;;;6.27;3.30;;;;;;;;;;5155527;27;20568;-72
2022/11/23 12:39:45;;;;;;;3.57;2.50;;;;;;;;;;5152605;27;20462;-72
2022/11/23 12:42:16;;;;;;;4.57;2.67;;;;;;;;;;5142307;27;20535;-72
2022/11/23 12:44:50;;;;;;;5.43;2.87;;;;;;;;;;5140804;27;20447;-72
2022/11/23 12:47:22;;;;;;;4.63;3.87;;;;;;;;;;5156671;27;20487;-71
2022/11/23 12:49:51;;;;;;;11.13;6.63;;;;;;;;;;5149431;27;20458;-71
2022/11/23 12:52:28;;;;;;;6.20;4.50;;;;;;;;;;5154765;27;20448;-71
2022/11/23 12:54:57;;;;;;;5.47;2.80;;;;;;;;;;5156135;27;20443;-72
2022/11/23 12:57:27;;;;;;;5.70;2.63;;;;;;;;;;5156057;27;20463;-72
2022/11/23 12:59:58;;;;;;;5.53;2.60;;;;;;;;;;5156176;27;20448;-72
2022/11/23 13:02:46;;;;;;;5.47;2.50;;;;;;;;;;5154812;27;20448;-72
2022/11/23 13:05:28;;;;;;;5.10;3.13;;;;;;;;;;5120510;27;20482;-71
2022/11/23 13:08:06;;;;;;;5.87;2.80;;;;;;;;;;5154117;27;20487;-71
2022/11/23 13:10:41;;;;;;;8.53;4.87;;;;;;;;;;5154872;27;20515;-71
2022/11/23 13:13:18;;;;;;;2.87;2.53;;;;;;;;;;5155396;27;20888;-71
2022/11/23 13:16:04;;;;;;;4.47;2.67;;;;;;;;;;5154981;27;20772;-71
2022/11/23 13:18:40;;;;;;;3.40;2.43;;;;;;;;;;5155118;27;20424;-73
2022/11/23 13:21:17;;;;;;;10.30;5.37;;;;;;;;;;5155633;27;20451;-72
2022/11/23 13:23:44;;;;;;;8.00;4.47;;;;;;;;;;5152441;27;20471;-71
2022/11/23 13:26:15;;;;;;;5.77;3.33;;;;;;;;;;5152349;27;20477;-72
2022/11/23 13:28:43;;;;;;;11.60;3.30;;;;;;;;;;5156044;27;20489;-72
2022/11/23 13:31:30;;;;;;;5.47;3.40;;;;;;;;;;5154851;27;20447;-71
2022/11/23 13:33:58;;;;;;;7.10;3.87;;;;;;;;;;5155517;27;20933;-71
2022/11/23 13:36:39;;;;;;;8.20;3.67;;;;;;;;;;5155868;27;20467;-71
2022/11/23 13:39:22;;;;;;;9.50;3.93;;;;;;;;;;5155954;27;20431;-71
2022/11/23 13:42:01;;;;;;;3.60;2.70;;;;;;;;;;5155601;27;20432;-71
2022/11/23 13:44:30;;;;;;;6.17;3.47;;;;;;;;;;5154993;27;20428;-71
2022/11/23 13:47:06;;;;;;;7.03;3.77;;;;;;;;;;5155277;27;20512;-71
2022/11/23 13:49:41;;;;;;;5.70;4.20;;;;;;;;;;5155439;27;20431;-72
2022/11/23 13:52:30;;;;;;;9.43;4.70;;;;;;;;;;5153022;27;20826;-71
2022/11/23 13:55:00;;;;;;;6.23;3.63;;;;;;;;;;5148177;27;20456;-71
2022/11/23 13:57:28;;;;;;;5.90;3.50;;;;;;;;;;5155455;27;20561;-71
2022/11/23 14:00:15;;;;;;;4.67;2.93;;;;;;;;;;5155568;27;21038;-71
2022/11/23 14:02:44;;;;;;;4.37;3.33;;;;;;;;;;5151562;27;20477;-71
2022/11/23 14:05:29;;;;;;;5.10;3.50;;;;;;;;;;5154739;27;20466;-72
2022/11/23 14:07:57;;;;;;;5.40;3.50;;;;;;;;;;5154822;27;20487;-72
2022/11/23 14:10:25;;;;;;;4.30;2.90;;;;;;;;;;5154933;27;20448;-72
2022/11/23 14:12:55;;;;;;;7.67;4.63;;;;;;;;;;5154745;27;20470;-71
2022/11/23 14:15:23;;;;;;;4.50;3.03;;;;;;;;;;5153610;27;20471;-72
2022/11/23 14:18:02;;;;;;;17.43;5.60;;;;;;;;;;5154721;27;20474;-72
2022/11/23 14:20:45;;;;;;;4.70;3.57;;;;;;;;;;5154750;27;20482;-71
2022/11/23 14:23:21;;;;;;;6.33;4.10;;;;;;;;;;5151805;27;20466;-71
2022/11/23 14:25:54;;;;;;;6.30;5.17;;;;;;;;;;5154577;27;20424;-71
2022/11/23 14:28:29;;;;;;;51.37;21.23;;;;;;;;;;5154439;27;20494;-71
2022/11/23 14:31:02;;;;;;;14.00;7.60;;;;;;;;;;5154889;27;20432;-72
2022/11/23 14:33:35;;;;;;;17.47;10.73;;;;;;;;;;5154401;27;20432;-72
2022/11/23 14:36:17;;;;;;;7.53;5.20;;;;;;;;;;5154519;27;20438;-72
2022/11/23 14:38:55;;;;;;;7.93;6.80;;;;;;;;;;5151303;27;20451;-72
2022/11/23 14:41:23;;;;;;;8.53;7.43;;;;;;;;;;5154952;27;20789;-72